Time;durP1;ratioP1;P1;durP2;ratioP2;P2;SDS_P1;SDS_P2;PMS_P1;PMS_P2;Temp;Humidity;BMP_temperature;BMP_pressure;BME280_temperature;BME280_humidity;BME280_pressure;Samples;Min_cycle;Max_cycle;Signal;HPM_P1;HPM_P2
2020/04/05 12:29:15;;;;;;;11.2;7.5;;;;;;;15.11;37.09961;964.2881;;;;
2020/04/05 12:31:44;;;;;;;10.2;7.7;;;;;;;15.06;36.82715;964.2653;;;;
2020/04/05 12:41:20;;;;;;;11;7.8;;;;;;;15.43;37.23145;964.0992;;;;
2020/04/05 12:43:57;;;;;;;11.5;7.8;;;;;;;15.7;36.93945;964.1424;;;;
2020/04/05 12:46:12;;;;;;;10.4;7.2;;;;;;;15.52;36.9707;964.1261;;;;
2020/04/05 12:48:31;;;;;;;11.5;7.6;;;;;;;15.3;36.8125;964.1139;;;;
2020/04/05 12:50:56;;;;;;;11;7.6;;;;;;;15.49;36.63086;964.029;;;;
2020/04/05 12:54:40;;;;;;;10.9;7.5;;;;;;;15.52;36.05078;964.0259;;;;
2020/04/05 12:55:47;;;;;;;10.9;7.6;;;;;;;15.55;36.04199;964.0475;;;;
2020/04/05 12:58:45;;;;;;;9.5;7.3;;;;;;;15.77;36.34082;964.0592;;;;
2020/04/05 13:03:00;;;;;;;9.7;7;;;;;;;15.63;34.98926;964.0095;;;;
2020/04/05 13:05:28;;;;;;;9.8;6.8;;;;;;;15.7;33.86523;963.9872;;;;
2020/04/05 13:08:02;;;;;;;10.9;6.8;;;;;;;15.81;33.66406;963.9353;;;;
2020/04/05 13:10:31;;;;;;;8.4;6.3;;;;;;;15.69;32.94434;963.9888;;;;
2020/04/05 13:15:44;;;;;;;9.2;6.7;;;;;;;15.57;33.04004;963.8604;;;;
2020/04/05 13:17:24;;;;;;;8.4;6.2;;;;;;;15.77;32.70605;963.8259;;;;
2020/04/05 13:19:50;;;;;;;9.5;6.1;;;;;;;15.92;32.68164;963.8053;;;;
2020/04/05 13:22:15;;;;;;;8.8;6.5;;;;;;;16.03;33.21484;963.8089;;;;
2020/04/05 13:24:40;;;;;;;10;6.5;;;;;;;16.18;32.64355;963.7932;;;;
2020/04/05 13:27:05;;;;;;;8.3;6.3;;;;;;;16.14;32.9668;963.7576;;;;
2020/04/05 13:29:30;;;;;;;10.1;6.9;;;;;;;16.05;32.63281;963.6948;;;;
2020/04/05 13:31:55;;;;;;;9.9;6.7;;;;;;;16.15;32.32617;963.6713;;;;
2020/04/05 13:34:21;;;;;;;8.8;6.7;;;;;;;15.96;32.71973;963.6204;;;;
2020/04/05 13:36:46;;;;;;;10.6;6.3;;;;;;;15.96;33.16309;963.557;;;;
2020/04/05 13:39:11;;;;;;;9.3;6.6;;;;;;;15.98;33.77051;963.6189;;;;
2020/04/05 13:41:36;;;;;;;8.9;6.4;;;;;;;16.32;32.65332;963.5946;;;;
2020/04/05 13:44:02;;;;;;;10.1;6.2;;;;;;;16.5;32.72559;963.5556;;;;
2020/04/05 13:46:27;;;;;;;9.5;6.6;;;;;;;16.27;32.48633;963.5795;;;;
2020/04/05 13:48:52;;;;;;;8.8;6.5;;;;;;;16.19;32.11914;963.5745;;;;
2020/04/05 13:51:17;;;;;;;8.6;6;;;;;;;16.48;33.41211;963.5267;;;;
2020/04/05 13:53:42;;;;;;;7.8;5.5;;;;;;;16.14;32.17383;963.5381;;;;
2020/04/05 13:56:07;;;;;;;8.7;6.1;;;;;;;16.09;31.91406;963.4724;;;;
2020/04/05 13:58:32;;;;;;;10.1;6.2;;;;;;;15.83;31.0918;963.4185;;;;
2020/04/05 14:00:57;;;;;;;6.8;5.7;;;;;;;16.17;31.34863;963.447;;;;
2020/04/05 14:03:24;;;;;;;9.3;6;;;;;;;16.29;31.60254;963.3758;;;;
2020/04/05 14:05:51;;;;;;;8.6;5.8;;;;;;;16.5;32.31738;963.3458;;;;
2020/04/05 14:08:13;;;;;;;8.7;5.6;;;;;;;16.35;31.8623;963.3372;;;;
2020/04/05 14:10:38;;;;;;;6.9;5.6;;;;;;;16.14;32.10449;963.3292;;;;
2020/04/05 14:13:03;;;;;;;9.5;5.7;;;;;;;16.19;31.54785;963.3353;;;;
2020/04/05 14:15:29;;;;;;;8;5.4;;;;;;;15.83;30.81152;963.3322;;;;
2020/04/05 14:17:53;;;;;;;8.1;5.8;;;;;;;15.75;31.88965;963.2249;;;;
2020/04/05 14:20:19;;;;;;;7.6;5.7;;;;;;;16.06;31.08398;963.2305;;;;
2020/04/05 14:22:53;;;;;;;9.4;5.6;;;;;;;16.17;30.82422;963.3516;;;;
2020/04/05 14:25:37;;;;;;;7.9;5.1;;;;;;;16.19;29.9043;963.2653;;;;
2020/04/05 14:28:13;;;;;;;9;5.6;;;;;;;16.15;32.80371;963.2042;;;;
2020/04/05 14:30:43;;;;;;;7.9;5.4;;;;;;;16.27;31.74023;963.1692;;;;
2020/04/05 14:34:59;;;;;;;8.1;5.5;;;;;;;16.23;32.36719;963.0581;;;;
2020/04/05 14:37:36;;;;;;;7.9;5.5;;;;;;;16.32;32.26855;963.0436;;;;
2020/04/05 14:42:37;;;;;;;11.1;5.7;;;;;;;16.36;32.84277;963.1061;;;;
2020/04/05 14:45:13;;;;;;;8.5;5.6;;;;;;;16.24;32.42578;962.9761;;;;
2020/04/05 14:47:26;;;;;;;8.2;5.5;;;;;;;16.3;31.74316;962.9384;;;;
2020/04/05 14:49:42;;;;;;;10.4;5.3;;;;;;;16.41;31.75098;962.9556;;;;
2020/04/05 14:52:07;;;;;;;8.1;5.5;;;;;;;16.32;32.8291;962.9645;;;;
2020/04/05 14:54:32;;;;;;;8.1;5.3;;;;;;;16.44;32.60449;962.9829;;;;
2020/04/05 14:56:57;;;;;;;8.4;5.4;;;;;;;16.26;32.98828;962.9414;;;;
2020/04/05 14:59:22;;;;;;;9;5.5;;;;;;;16.46;33.01465;962.9369;;;;
2020/04/05 15:01:47;;;;;;;6.8;5.2;;;;;;;16.27;32.50977;962.957;;;;
2020/04/05 15:04:12;;;;;;;8.5;5.2;;;;;;;16.15;32.61816;962.9386;;;;
2020/04/05 15:06:37;;;;;;;10.8;5.8;;;;;;;16.2;32.94727;962.9486;;;;
2020/04/05 15:09:03;;;;;;;8.1;5.4;;;;;;;16.18;32.45703;962.8671;;;;
2020/04/05 15:11:28;;;;;;;8.1;5.3;;;;;;;16.12;32.30078;962.825;;;;
2020/04/05 15:13:53;;;;;;;9;5.4;;;;;;;16.15;32.40723;962.8013;;;;
2020/04/05 15:16:18;;;;;;;8.6;5.4;;;;;;;15.98;32.55859;962.8075;;;;
2020/04/05 15:18:43;;;;;;;8.4;5.8;;;;;;;15.9;32.61035;962.808;;;;
2020/04/05 15:21:08;;;;;;;8.4;5.4;;;;;;;16.01;32.66504;962.7567;;;;
2020/04/05 15:23:33;;;;;;;7.8;5.2;;;;;;;15.97;32.48828;962.7053;;;;
2020/04/05 15:25:58;;;;;;;7.3;5.4;;;;;;;15.96;32.97559;962.7342;;;;
2020/04/05 15:28:23;;;;;;;7.4;5.3;;;;;;;15.93;33.10254;962.7095;;;;
2020/04/05 15:30:48;;;;;;;9.5;5;;;;;;;15.79;33.08008;962.7327;;;;
2020/04/05 15:33:14;;;;;;;10.1;5.3;;;;;;;15.71;33.49316;962.6916;;;;
2020/04/05 15:35:39;;;;;;;7.4;5.3;;;;;;;15.82;32.89551;962.6703;;;;
2020/04/05 15:38:04;;;;;;;9.4;5.9;;;;;;;15.82;33.26855;962.6367;;;;
2020/04/05 15:40:29;;;;;;;6.8;5.4;;;;;;;15.83;33.03711;962.59;;;;
2020/04/05 15:42:54;;;;;;;8;5.3;;;;;;;15.8;32.90625;962.5858;;;;
2020/04/05 15:45:19;;;;;;;8.7;5.5;;;;;;;15.73;32.59766;962.5574;;;;
2020/04/05 15:47:44;;;;;;;7.2;5.3;;;;;;;15.78;32.57813;962.5034;;;;
2020/04/05 15:50:09;;;;;;;9.6;5.4;;;;;;;15.77;32.56641;962.4592;;;;
2020/04/05 15:52:34;;;;;;;7.5;5.1;;;;;;;15.68;32.76953;962.4489;;;;
2020/04/05 15:55:00;;;;;;;8.4;5.4;;;;;;;15.75;32.41309;962.4796;;;;
2020/04/05 15:57:25;;;;;;;8.6;5.3;;;;;;;15.68;34.07324;962.4802;;;;
2020/04/05 15:59:50;;;;;;;7.5;5.2;;;;;;;15.81;32.60449;962.4715;;;;
2020/04/05 16:02:15;;;;;;;10.6;5.3;;;;;;;15.71;32.65527;962.4967;;;;
2020/04/05 16:04:40;;;;;;;7.8;5.5;;;;;;;15.76;33.5791;962.4942;;;;
2020/04/05 16:07:05;;;;;;;9.2;5.9;;;;;;;15.81;33.08203;962.469;;;;
2020/04/05 16:09:30;;;;;;;10.2;5.8;;;;;;;15.69;32.95605;962.4217;;;;
2020/04/05 16:11:55;;;;;;;9.2;5.8;;;;;;;15.53;33.89941;962.4168;;;;
2020/04/05 16:14:21;;;;;;;10.2;6.2;;;;;;;15.6;33.60059;962.44;;;;
2020/04/05 16:16:47;;;;;;;9;5.6;;;;;;;15.58;33.05273;962.4537;;;;
2020/04/05 16:19:11;;;;;;;8.1;5.6;;;;;;;15.51;33.61816;962.4363;;;;
2020/04/05 16:21:36;;;;;;;7.2;5.6;;;;;;;15.55;33.06152;962.4447;;;;
2020/04/05 16:24:01;;;;;;;7.8;5.7;;;;;;;15.62;33.16016;962.4517;;;;
2020/04/05 16:26:26;;;;;;;7;5.5;;;;;;;15.66;33.30371;962.3992;;;;
2020/04/05 16:28:51;;;;;;;9;5.8;;;;;;;15.54;33.13086;962.4266;;;;
2020/04/05 16:31:16;;;;;;;8.2;5.7;;;;;;;15.54;32.99121;962.4241;;;;
2020/04/05 16:33:41;;;;;;;7.4;5.5;;;;;;;15.45;34.14844;962.4278;;;;
2020/04/05 16:36:06;;;;;;;7.4;5.3;;;;;;;15.44;33.50684;962.4008;;;;
2020/04/05 16:38:32;;;;;;;8.4;5.2;;;;;;;15.53;33.56152;962.3987;;;;
2020/04/05 16:40:57;;;;;;;7.9;5.2;;;;;;;15.36;34.06055;962.3912;;;;
2020/04/05 16:43:22;;;;;;;7.6;5.1;;;;;;;15.45;34.54395;962.372;;;;
2020/04/05 16:45:47;;;;;;;8.8;5.8;;;;;;;15.35;34.0127;962.3627;;;;
2020/04/05 16:48:12;;;;;;;7;5.4;;;;;;;15.34;34.48926;962.4075;;;;
2020/04/05 16:50:37;;;;;;;8.2;5.5;;;;;;;15.42;34.36719;962.3915;;;;
2020/04/05 16:53:03;;;;;;;8.3;5.6;;;;;;;15.24;35.17871;962.4473;;;;
2020/04/05 16:55:28;;;;;;;8.5;5.6;;;;;;;15.28;34.93848;962.4425;;;;
2020/04/05 16:57:53;;;;;;;8.4;5.7;;;;;;;15.21;35.26953;962.4266;;;;
2020/04/05 17:00:18;;;;;;;8.2;5.4;;;;;;;15.14;35.53223;962.4165;;;;
2020/04/05 17:02:50;;;;;;;9.4;5.6;;;;;;;15.11;35.21484;962.3876;;;;
2020/04/05 17:05:12;;;;;;;7;5;;;;;;;15.14;35.24121;962.4156;;;;
2020/04/05 17:07:52;;;;;;;8.2;5.8;;;;;;;15.08;35.57324;962.3923;;;;
2020/04/05 17:10:26;;;;;;;7.8;5.7;;;;;;;15.07;35.375;962.3731;;;;
2020/04/05 17:13:30;;;;;;;8.1;5.6;;;;;;;14.97;35.41309;962.3661;;;;
2020/04/05 17:15:01;;;;;;;7.4;5.4;;;;;;;15.12;35.72754;962.3793;;;;
2020/04/05 17:17:28;;;;;;;7.7;5.7;;;;;;;14.92;35.71094;962.4059;;;;
2020/04/05 17:19:54;;;;;;;7;5.3;;;;;;;14.89;35.92969;962.4139;;;;
2020/04/05 17:24:43;;;;;;;8.4;5.5;;;;;;;14.81;36.43457;962.3627;;;;
2020/04/05 17:27:11;;;;;;;8.1;5.7;;;;;;;14.64;36.91992;962.3539;;;;
2020/04/05 17:29:26;;;;;;;8.6;5.9;;;;;;;14.58;36.85742;962.3223;;;;
2020/04/05 17:34:15;;;;;;;8.2;6;;;;;;;14.44;36.98438;962.2789;;;;
2020/04/05 17:39:15;;;;;;;8.3;5.5;;;;;;;14.41;37.67871;962.2606;;;;
2020/04/05 17:41:50;;;;;;;8.5;5.8;;;;;;;14.34;37.76563;962.2232;;;;
2020/04/05 17:44:06;;;;;;;9.8;5.9;;;;;;;14.22;38.66016;962.2;;;;
2020/04/05 17:46:32;;;;;;;9.6;6.6;;;;;;;14.26;38.19922;962.2396;;;;
2020/04/05 17:51:27;;;;;;;7.6;6.2;;;;;;;14.21;38.24121;962.2279;;;;
2020/04/05 17:55:21;;;;;;;10.2;6.3;;;;;;;14.1;38.84766;962.2407;;;;
2020/04/05 17:56:17;;;;;;;7.6;6.3;;;;;;;13.97;39.05469;962.2146;;;;
2020/04/05 17:58:30;;;;;;;8.6;6.3;;;;;;;13.92;39.59668;962.2356;;;;
2020/04/05 18:01:11;;;;;;;8.9;6;;;;;;;13.89;39.29199;962.2714;;;;
2020/04/05 18:03:19;;;;;;;8.8;6.1;;;;;;;13.84;39.55371;962.2986;;;;
2020/04/05 18:05:51;;;;;;;8.3;5.6;;;;;;;13.74;39.74219;962.3173;;;;
2020/04/05 18:10:35;;;;;;;8.1;6.3;;;;;;;13.57;40.44531;962.3209;;;;
2020/04/05 18:13:00;;;;;;;9.3;6.3;;;;;;;13.52;40.53418;962.2886;;;;
2020/04/05 18:15:31;;;;;;;8.5;6;;;;;;;13.51;41.09961;962.3808;;;;
2020/04/05 18:17:47;;;;;;;10.3;6.5;;;;;;;13.44;41.16309;962.385;;;;
2020/04/05 18:20:17;;;;;;;9.6;6.7;;;;;;;13.35;41.29297;962.3699;;;;
2020/04/05 18:22:42;;;;;;;8.3;6.6;;;;;;;13.34;41.23438;962.3574;;;;
2020/04/05 18:25:02;;;;;;;7.7;5.9;;;;;;;13.16;42.08594;962.3251;;;;
2020/04/05 18:27:30;;;;;;;10.2;6.2;;;;;;;13.15;41.65625;962.3931;;;;
2020/04/05 18:32:25;;;;;;;10.8;6.6;;;;;;;13.11;41.60645;962.4197;;;;
2020/04/05 18:34:38;;;;;;;8.7;6.6;;;;;;;13.04;42.17871;962.3522;;;;
2020/04/05 18:37:03;;;;;;;10.1;6.7;;;;;;;12.94;42.62012;962.3876;;;;
2020/04/05 18:39:28;;;;;;;10.7;6.9;;;;;;;13;42.16309;962.3484;;;;
2020/04/05 18:41:53;;;;;;;10.4;6.8;;;;;;;12.94;42.5498;962.3533;;;;
2020/04/05 18:44:19;;;;;;;9.2;6.1;;;;;;;12.86;42.33496;962.3349;;;;
2020/04/05 18:46:44;;;;;;;9.8;6.6;;;;;;;12.8;42.61816;962.3176;;;;
2020/04/05 18:49:09;;;;;;;8.9;6.9;;;;;;;12.76;42.75293;962.3589;;;;
2020/04/05 18:51:34;;;;;;;12.3;7.4;;;;;;;12.68;43.20703;962.3167;;;;
2020/04/05 18:53:59;;;;;;;11.4;8;;;;;;;12.64;43.08887;962.3014;;;;
2020/04/05 18:56:25;;;;;;;11.7;8.2;;;;;;;12.65;44.11816;962.3228;;;;
2020/04/05 18:58:50;;;;;;;11.7;8.8;;;;;;;12.68;43.0459;962.324;;;;
2020/04/05 19:01:15;;;;;;;11.9;8.1;;;;;;;12.6;43.33887;962.2299;;;;
2020/04/05 19:03:40;;;;;;;10.5;8.2;;;;;;;12.54;43.64453;962.2395;;;;
2020/04/05 19:06:06;;;;;;;10.6;8;;;;;;;12.41;44.34766;962.1972;;;;
2020/04/05 19:08:31;;;;;;;12.3;8.3;;;;;;;12.31;44.37207;962.1686;;;;
2020/04/05 19:10:56;;;;;;;11.4;8;;;;;;;12.33;44.23633;962.1307;;;;
2020/04/05 19:13:21;;;;;;;10.5;7.6;;;;;;;12.47;43.61426;962.1351;;;;
2020/04/05 19:15:46;;;;;;;10.8;7.7;;;;;;;12.49;44.00879;962.1667;;;;
2020/04/05 19:18:12;;;;;;;13;8.9;;;;;;;12.42;43.70215;962.1656;;;;
2020/04/05 19:20:37;;;;;;;10.5;8.5;;;;;;;12.25;44.66602;962.0876;;;;
2020/04/05 19:23:02;;;;;;;12.5;9.6;;;;;;;12.19;44.72949;962.0662;;;;
2020/04/05 19:25:27;;;;;;;10.9;9.1;;;;;;;12.13;45.18555;962.0602;;;;
2020/04/05 19:27:52;;;;;;;12.2;8.9;;;;;;;12.03;46.07617;962.0831;;;;
2020/04/05 19:30:17;;;;;;;11;8.2;;;;;;;11.93;46.45898;962.2012;;;;
2020/04/05 19:32:44;;;;;;;10.6;7.9;;;;;;;11.82;46.31836;962.1575;;;;
2020/04/05 19:35:09;;;;;;;9.9;8;;;;;;;11.74;47.22266;962.1461;;;;
2020/04/05 19:37:34;;;;;;;9.1;7.6;;;;;;;11.67;47.30762;962.1711;;;;
2020/04/05 19:39:59;;;;;;;10;7.6;;;;;;;11.65;48.15918;962.2433;;;;
2020/04/05 19:42:24;;;;;;;10;7.6;;;;;;;11.63;47.11816;962.2117;;;;
2020/04/05 19:44:49;;;;;;;8.6;7.2;;;;;;;11.48;48.20898;962.1859;;;;
2020/04/05 19:47:15;;;;;;;8.3;6.7;;;;;;;11.55;47.20215;962.1933;;;;
2020/04/05 19:49:40;;;;;;;8.8;6.4;;;;;;;11.58;46.97461;962.1937;;;;
2020/04/05 19:52:05;;;;;;;8.5;6.4;;;;;;;11.53;47.0957;962.1429;;;;
2020/04/05 19:54:30;;;;;;;8.6;6.2;;;;;;;11.51;47.41797;962.123;;;;
2020/04/05 19:56:56;;;;;;;8;6.5;;;;;;;11.48;47.45898;962.0978;;;;
2020/04/05 19:59:21;;;;;;;10.6;6.8;;;;;;;11.43;48.09961;962.1142;;;;
2020/04/05 20:01:46;;;;;;;7.9;6.3;;;;;;;11.4;50.18359;962.1446;;;;
2020/04/05 20:04:11;;;;;;;8.4;6.2;;;;;;;11.37;48.51953;962.1807;;;;
2020/04/05 20:06:36;;;;;;;8.6;6.4;;;;;;;11.38;47.8291;962.1669;;;;
2020/04/05 20:09:01;;;;;;;7.9;6.7;;;;;;;11.46;47.30762;962.101;;;;
2020/04/05 20:11:26;;;;;;;9.4;7.4;;;;;;;11.37;47.51758;962.1049;;;;
2020/04/05 20:13:52;;;;;;;12.2;8.2;;;;;;;11.41;47.07227;962.0353;;;;
2020/04/05 20:16:17;;;;;;;10.3;7.4;;;;;;;11.43;46.87793;962.0571;;;;
2020/04/05 20:18:49;;;;;;;10.3;7.3;;;;;;;11.39;47.16211;962.0168;;;;
2020/04/05 20:21:07;;;;;;;11.3;7.9;;;;;;;11.33;47.15527;962.0189;;;;
2020/04/05 20:23:33;;;;;;;11.7;7.8;;;;;;;11.25;47.60742;962.0086;;;;
2020/04/05 20:26:04;;;;;;;9.1;7.4;;;;;;;11.25;48.23047;961.9695;;;;
2020/04/05 20:28:22;;;;;;;11.6;7.4;;;;;;;11.25;48.0791;961.9291;;;;
2020/04/05 20:30:47;;;;;;;10.9;7.1;;;;;;;11.3;47.03613;961.8805;;;;
2020/04/05 20:33:13;;;;;;;10.3;6.8;;;;;;;11.22;47.68359;961.9084;;;;
2020/04/05 20:35:38;;;;;;;8.9;6.6;;;;;;;11.29;46.94336;961.9023;;;;
2020/04/05 20:38:03;;;;;;;9.8;6.9;;;;;;;11.25;47.94043;961.9715;;;;
2020/04/05 20:40:36;;;;;;;9.2;6.7;;;;;;;11.19;47.4043;961.9519;;;;
2020/04/05 20:43:01;;;;;;;11.5;6.8;;;;;;;11.08;47.86523;961.9235;;;;
2020/04/05 20:45:26;;;;;;;9.6;6.5;;;;;;;11.08;47.64648;961.9431;;;;
2020/04/05 20:47:51;;;;;;;10;6.5;;;;;;;10.95;50.15527;961.8959;;;;
2020/04/05 20:50:17;;;;;;;10.1;6.8;;;;;;;10.83;50.52148;961.8742;;;;
2020/04/05 20:52:42;;;;;;;8.6;7.1;;;;;;;10.86;50.06445;961.892;;;;
2020/04/05 20:55:07;;;;;;;7.8;6.3;;;;;;;10.85;48.89844;961.8736;;;;
2020/04/05 20:57:33;;;;;;;12.2;7.5;;;;;;;10.94;48.16113;961.843;;;;
2020/04/05 20:59:58;;;;;;;9.5;7;;;;;;;10.97;47.80859;961.824;;;;
2020/04/05 21:02:23;;;;;;;11.9;7.3;;;;;;;11.01;47.61523;961.8413;;;;
2020/04/05 21:04:48;;;;;;;10.8;6.9;;;;;;;11.01;47.63867;961.8307;;;;
2020/04/05 21:07:13;;;;;;;9.1;7;;;;;;;10.91;48.15723;961.8871;;;;
2020/04/05 21:09:38;;;;;;;9.9;6.7;;;;;;;10.91;48.22559;961.8756;;;;
2020/04/05 21:12:03;;;;;;;9.9;6.8;;;;;;;10.74;49.77344;961.8217;;;;
2020/04/05 21:14:28;;;;;;;10.6;7.2;;;;;;;10.72;48.78125;961.8244;;;;
2020/04/05 21:16:54;;;;;;;10.5;7.9;;;;;;;10.68;48.91504;961.8261;;;;
2020/04/05 21:19:19;;;;;;;9.3;7.3;;;;;;;10.56;50.69629;961.7929;;;;
2020/04/05 21:21:44;;;;;;;11.5;8.5;;;;;;;10.53;49.51953;961.7743;;;;
2020/04/05 21:24:09;;;;;;;13.9;8.5;;;;;;;10.48;50.13477;961.775;;;;
2020/04/05 21:26:34;;;;;;;11.4;8.3;;;;;;;10.44;50.55664;961.7458;;;;
2020/04/05 21:28:59;;;;;;;11.8;8.5;;;;;;;10.4;50.34375;961.7299;;;;
2020/04/05 21:31:25;;;;;;;12.9;8.7;;;;;;;10.47;49.9375;961.7162;;;;
2020/04/05 21:33:50;;;;;;;11.3;7.9;;;;;;;10.4;50.14941;961.6827;;;;
2020/04/05 21:36:15;;;;;;;11.4;7.8;;;;;;;10.3;51.10254;961.7424;;;;
2020/04/05 21:38:40;;;;;;;12.1;8.1;;;;;;;10.39;50.45898;961.6948;;;;
2020/04/05 21:41:06;;;;;;;13.6;8.1;;;;;;;10.3;51.14941;961.6716;;;;
2020/04/05 21:45:31;;;;;;;10.2;6.7;;;;;;;10.34;50.70508;961.6641;;;;
2020/04/05 21:47:56;;;;;;;9.9;6.7;;;;;;;10.41;50.41406;961.7043;;;;
2020/04/05 21:50:21;;;;;;;9.3;6.1;;;;;;;10.33;50.51953;961.6486;;;;
2020/04/05 21:52:46;;;;;;;12.6;6.4;;;;;;;10.34;50.70508;961.6356;;;;
2020/04/05 21:55:11;;;;;;;10.4;6.5;;;;;;;10.3;50.75781;961.6039;;;;
2020/04/05 21:57:36;;;;;;;9.7;6.5;;;;;;;10.24;50.78613;961.5834;;;;
2020/04/05 22:00:02;;;;;;;9.8;6.4;;;;;;;10.24;50.64844;961.5264;;;;
2020/04/05 22:02:27;;;;;;;9.8;6.2;;;;;;;10.22;50.57617;961.5478;;;;
2020/04/05 22:04:52;;;;;;;10.3;5.8;;;;;;;10.18;50.54883;961.5226;;;;
2020/04/05 22:07:17;;;;;;;10.3;6.2;;;;;;;10.12;50.90918;961.5602;;;;
2020/04/05 22:09:44;;;;;;;8.7;5.8;;;;;;;10.16;50.68457;961.574;;;;
2020/04/05 22:12:07;;;;;;;9.1;5.9;;;;;;;10.11;50.9541;961.6143;;;;
2020/04/05 22:14:33;;;;;;;9.5;6;;;;;;;10.11;50.90723;961.5564;;;;
2020/04/05 22:16:57;;;;;;;7.9;5.8;;;;;;;10.08;50.77734;961.5883;;;;
2020/04/05 22:19:23;;;;;;;8.6;5.9;;;;;;;10.08;50.97461;961.5854;;;;
2020/04/05 22:21:47;;;;;;;8.5;5.8;;;;;;;10.05;51.13086;961.6063;;;;
2020/04/05 22:24:12;;;;;;;9.7;5.8;;;;;;;10.07;51.04102;961.6346;;;;
2020/04/05 22:26:37;;;;;;;10.3;5.9;;;;;;;9.94;52.35938;961.6129;;;;
2020/04/05 22:29:03;;;;;;;8.5;5.3;;;;;;;9.84;52.37012;961.6292;;;;
2020/04/05 22:31:28;;;;;;;8.2;5.7;;;;;;;9.87;52.17871;961.5876;;;;
2020/04/05 22:33:53;;;;;;;9.7;6;;;;;;;9.64;53.40234;961.6215;;;;
2020/04/05 22:36:18;;;;;;;9.5;5.8;;;;;;;9.66;53.2207;961.5591;;;;
2020/04/05 22:38:43;;;;;;;8.9;5.8;;;;;;;9.67;53.02734;961.5963;;;;
2020/04/05 22:41:08;;;;;;;8.3;5.6;;;;;;;9.63;53.0791;961.5754;;;;
2020/04/05 22:43:33;;;;;;;10.9;5.9;;;;;;;9.64;53.2998;961.5386;;;;
2020/04/05 22:45:58;;;;;;;13.5;7.4;;;;;;;9.65;52.95508;961.5452;;;;
2020/04/05 22:48:23;;;;;;;11.4;6.5;;;;;;;9.68;53.11914;961.5273;;;;
2020/04/05 22:50:48;;;;;;;9.1;6.1;;;;;;;9.68;53.06152;961.4866;;;;
2020/04/05 22:53:14;;;;;;;8.7;5.9;;;;;;;9.62;53.2959;961.551;;;;
2020/04/05 22:55:39;;;;;;;9.5;6.2;;;;;;;9.55;53.4707;961.5175;;;;
2020/04/05 22:58:04;;;;;;;10;6;;;;;;;9.42;54.68359;961.5012;;;;
2020/04/05 23:00:29;;;;;;;11.5;5.9;;;;;;;9.36;54.61816;961.5228;;;;
2020/04/05 23:02:54;;;;;;;10.6;5.6;;;;;;;9.28;54.79199;961.5306;;;;
2020/04/05 23:05:19;;;;;;;9.6;6.1;;;;;;;9.17;56.23438;961.5519;;;;
2020/04/05 23:07:45;;;;;;;11.5;6;;;;;;;9.05;56.58594;961.5397;;;;
2020/04/05 23:10:10;;;;;;;8.7;6;;;;;;;9.11;56.89063;961.5803;;;;
2020/04/05 23:12:35;;;;;;;10.1;5.9;;;;;;;8.98;56.29004;961.5565;;;;
2020/04/05 23:15:00;;;;;;;9;5.5;;;;;;;9.08;55.52344;961.63;;;;
2020/04/05 23:17:32;;;;;;;9.4;5.5;;;;;;;9.16;55.5332;961.6249;;;;
2020/04/05 23:19:50;;;;;;;9.9;5.5;;;;;;;9.15;55.54492;961.6514;;;;
2020/04/05 23:22:15;;;;;;;11.6;5.8;;;;;;;9.05;56.18457;961.7062;;;;
2020/04/05 23:24:40;;;;;;;7.3;5.3;;;;;;;8.95;56.6416;961.7125;;;;
2020/04/05 23:27:05;;;;;;;10.3;5.6;;;;;;;8.92;57.24609;961.7191;;;;
2020/04/05 23:29:30;;;;;;;9.8;6.2;;;;;;;8.86;57.91406;961.7456;;;;
2020/04/05 23:31:56;;;;;;;9.3;5.5;;;;;;;8.86;57.74316;961.6962;;;;
2020/04/05 23:34:21;;;;;;;9.6;5.7;;;;;;;8.8;57.12695;961.7335;;;;
2020/04/05 23:36:47;;;;;;;9;5.8;;;;;;;8.62;59.47559;961.7012;;;;
2020/04/05 23:49:49;;;;;;;10.4;6.3;;;;;;;8.35;60.49023;961.6555;;;;
2020/04/05 23:52:15;;;;;;;9.7;6.5;;;;;;;8.29;61.89063;961.6973;;;;
2020/04/05 23:54:40;;;;;;;11;6.2;;;;;;;8.27;60.77637;961.7396;;;;
2020/04/05 23:57:05;;;;;;;11.8;6.1;;;;;;;8.18;61.06152;961.7855;;;;
2020/04/05 23:59:30;;;;;;;9.6;6.2;;;;;;;8.14;61.62891;961.7892;;;;
